createdAt,value
2023-03-22T00:02:12.950Z,27.08
2023-03-22T00:06:13.020Z,27.05
2023-03-22T00:10:13.067Z,27.05
2023-03-22T00:14:13.179Z,27.06
2023-03-22T00:18:13.276Z,27.08
2023-03-22T00:22:13.434Z,27.06
2023-03-22T00:26:13.546Z,27.06
2023-03-22T00:30:13.709Z,27.08
2023-03-22T00:34:13.836Z,27.03
2023-03-22T00:38:13.918Z,27.02
2023-03-22T00:42:14.072Z,27.05
2023-03-22T00:46:14.376Z,27.05
2023-03-22T00:50:14.253Z,27.06
2023-03-22T00:54:14.463Z,27.11
2023-03-22T00:58:14.532Z,27.03
2023-03-22T01:02:14.646Z,27.01
2023-03-22T01:06:14.746Z,27.05
2023-03-22T01:10:14.896Z,27.06
2023-03-22T01:14:15.031Z,26.99
2023-03-22T01:18:15.118Z,27.06
2023-03-22T01:22:15.219Z,27.03
2023-03-22T01:26:15.304Z,27.01
2023-03-22T01:30:15.444Z,27.03
2023-03-22T01:34:15.645Z,27.05
2023-03-22T01:38:15.696Z,27.00
2023-03-22T01:42:15.805Z,27.04
2023-03-22T01:46:15.968Z,27.03
2023-03-22T01:50:15.961Z,26.99
2023-03-22T01:54:16.127Z,27.00
2023-03-22T01:58:16.252Z,27.04
2023-03-22T02:02:16.399Z,27.04
2023-03-22T02:06:16.510Z,27.04
2023-03-22T02:10:16.709Z,27.01
2023-03-22T02:14:16.847Z,27.06
2023-03-22T02:18:16.886Z,27.01
2023-03-22T02:22:17.084Z,27.07
2023-03-22T02:26:17.165Z,27.03
2023-03-22T02:30:17.259Z,27.06
2023-03-22T02:34:17.364Z,27.01
2023-03-22T02:38:17.495Z,27.00
2023-03-22T02:42:17.671Z,27.04
2023-03-22T02:46:17.721Z,27.07
2023-03-22T02:50:17.888Z,27.00
2023-03-22T02:54:17.961Z,27.07
2023-03-22T02:58:18.040Z,27.05
2023-03-22T03:02:18.159Z,27.01
2023-03-22T03:06:18.321Z,27.03
2023-03-22T03:10:18.465Z,27.07
2023-03-22T03:14:18.580Z,27.06
2023-03-22T03:18:18.638Z,27.10
2023-03-22T03:22:18.784Z,27.05
2023-03-22T03:26:18.914Z,27.03
2023-03-22T03:30:19.021Z,27.04
2023-03-22T03:34:19.217Z,27.07
2023-03-22T03:38:19.290Z,27.05
2023-03-22T03:42:19.362Z,27.03
2023-03-22T03:46:19.470Z,27.01
2023-03-22T03:50:19.623Z,26.98
2023-03-22T03:54:19.726Z,26.99
2023-03-22T03:58:19.810Z,27.05
2023-03-22T04:02:19.941Z,27.02
2023-03-22T04:06:20.070Z,27.04
2023-03-22T04:10:20.183Z,27.04
2023-03-22T04:14:20.305Z,27.04
2023-03-22T04:18:20.461Z,27.02
2023-03-22T04:22:20.537Z,27.04
2023-03-22T04:26:20.668Z,27.01
2023-03-22T04:30:20.776Z,27.02
2023-03-22T04:34:20.893Z,27.05
2023-03-22T04:38:21.080Z,27.04
2023-03-22T04:42:21.135Z,27.04
2023-03-22T04:46:21.382Z,27.02
2023-03-22T04:50:21.336Z,26.98
2023-03-22T04:54:21.868Z,26.99
2023-03-22T04:58:21.586Z,26.95
2023-03-22T05:02:21.735Z,27.01
2023-03-22T05:06:21.793Z,27.02
2023-03-22T05:10:21.875Z,26.90
2023-03-22T05:14:22.013Z,26.75
2023-03-22T05:18:22.034Z,26.71
2023-03-22T05:22:22.171Z,26.62
2023-03-22T05:26:22.248Z,26.57
2023-03-22T05:30:22.378Z,26.51
2023-03-22T05:34:22.504Z,26.45
2023-03-22T05:38:22.572Z,26.44
2023-03-22T05:42:22.631Z,26.42
2023-03-22T05:46:22.825Z,26.45
2023-03-22T05:50:22.864Z,26.44
2023-03-22T05:54:23.355Z,26.56
2023-03-22T05:58:23.086Z,26.62
2023-03-22T06:02:23.155Z,26.66
2023-03-22T06:06:23.354Z,26.81
2023-03-22T06:10:23.417Z,26.93
2023-03-22T06:14:23.613Z,26.96
2023-03-22T06:18:23.769Z,26.92
2023-03-22T06:22:23.770Z,27.59
2023-03-22T06:26:23.844Z,27.20
2023-03-22T06:30:23.968Z,27.08
2023-03-22T06:34:24.080Z,27.21
2023-03-22T06:38:24.314Z,27.06
2023-03-22T06:42:24.374Z,26.72
2023-03-22T06:46:24.409Z,26.74
2023-03-22T06:50:25.425Z,26.72
2023-03-22T06:54:24.898Z,26.71
2023-03-22T06:58:26.360Z,26.70
2023-03-22T07:02:24.974Z,26.75
2023-03-22T07:06:24.815Z,26.91
2023-03-22T07:10:24.905Z,26.57
2023-03-22T07:14:25.078Z,26.52
2023-03-22T07:18:25.127Z,26.52
2023-03-22T07:22:25.303Z,26.36
2023-03-22T07:26:25.467Z,26.51
2023-03-22T07:30:25.494Z,26.53
2023-03-22T07:34:25.656Z,26.54
2023-03-22T07:38:25.733Z,26.58
2023-03-22T07:42:25.875Z,26.46
2023-03-22T07:46:26.433Z,26.34
2023-03-22T07:50:26.135Z,26.50
2023-03-22T07:54:33.794Z,26.58
2023-03-22T07:58:27.214Z,26.64
2023-03-22T08:02:26.262Z,26.67
2023-03-22T08:06:26.271Z,26.77
2023-03-22T08:10:26.500Z,26.82
2023-03-22T08:14:36.035Z,26.97
2023-03-22T08:18:27.614Z,26.92
2023-03-22T08:22:28.450Z,26.90
2023-03-22T08:26:26.525Z,26.78
2023-03-22T08:30:26.783Z,26.76
2023-03-22T08:34:26.901Z,26.69
2023-03-22T08:38:27.075Z,26.90
2023-03-22T08:42:27.241Z,27.24
2023-03-22T08:46:27.401Z,27.14
2023-03-22T08:50:27.450Z,27.16
2023-03-22T08:54:27.893Z,27.08
2023-03-22T08:58:27.649Z,27.10
2023-03-22T09:02:27.847Z,27.13
2023-03-22T09:06:27.924Z,27.06
2023-03-22T09:10:28.063Z,27.03
2023-03-22T09:14:28.194Z,27.00
2023-03-22T09:18:28.322Z,26.94
2023-03-22T09:22:28.418Z,26.93
2023-03-22T09:26:28.962Z,27.02
2023-03-22T09:30:28.661Z,27.38
2023-03-22T09:34:28.791Z,27.10
2023-03-22T09:38:28.977Z,27.02
2023-03-22T09:42:28.988Z,26.99
2023-03-22T09:46:29.276Z,27.07
2023-03-22T09:50:29.402Z,26.95
2023-03-22T09:54:29.280Z,26.93
2023-03-22T09:58:29.399Z,27.29
2023-03-22T10:02:29.485Z,26.97
2023-03-22T10:06:29.641Z,26.93
2023-03-22T10:10:29.540Z,26.92
2023-03-22T10:14:29.569Z,26.87
2023-03-22T10:18:29.638Z,26.78
2023-03-22T10:22:29.662Z,26.54
2023-03-22T10:26:29.706Z,26.68
2023-03-22T10:30:29.737Z,26.60
2023-03-22T10:34:29.813Z,26.56
2023-03-22T10:38:29.947Z,26.56
2023-03-22T10:42:29.979Z,26.54
2023-03-22T10:46:30.114Z,26.33
2023-03-22T10:50:30.167Z,26.38
2023-03-22T10:54:30.499Z,26.17
2023-03-22T10:58:30.403Z,25.93
2023-03-22T11:02:30.606Z,25.23
2023-03-22T11:06:30.665Z,24.33
2023-03-22T11:10:31.565Z,24.46
2023-03-22T11:14:30.712Z,24.80
2023-03-22T11:18:31.060Z,24.57
2023-03-22T11:22:31.080Z,23.72
2023-03-22T11:26:31.092Z,23.61
2023-03-22T11:30:31.059Z,24.53
2023-03-22T11:34:31.642Z,24.50
2023-03-22T11:38:31.109Z,24.20
2023-03-22T11:42:31.170Z,24.08
2023-03-22T11:46:31.217Z,24.28
2023-03-22T11:50:31.371Z,24.25
2023-03-22T11:54:31.506Z,24.10
2023-03-22T11:58:31.665Z,23.95
2023-03-22T12:02:31.996Z,23.77
2023-03-22T12:06:32.032Z,23.82
2023-03-22T12:10:32.126Z,23.95
2023-03-22T12:14:32.412Z,23.73
2023-03-22T12:18:32.512Z,24.03
2023-03-22T12:22:32.618Z,23.80
2023-03-22T12:26:32.773Z,23.92
2023-03-22T12:30:32.955Z,24.04
2023-03-22T12:34:33.076Z,24.06
2023-03-22T12:38:33.281Z,24.21
2023-03-22T12:42:34.947Z,24.41
2023-03-22T12:46:33.401Z,24.54
2023-03-22T12:50:33.350Z,24.50
2023-03-22T12:54:33.281Z,24.51
2023-03-22T12:58:33.281Z,24.53
2023-03-22T13:02:33.375Z,24.41
2023-03-22T13:06:33.259Z,24.55
2023-03-22T13:10:33.247Z,24.56
2023-03-22T13:14:33.385Z,24.74
2023-03-22T13:18:33.760Z,24.66
2023-03-22T13:22:33.736Z,24.66
2023-03-22T13:26:33.901Z,24.77
2023-03-22T13:30:34.031Z,24.75
2023-03-22T13:34:34.172Z,24.80
2023-03-22T13:38:34.332Z,24.81
2023-03-22T13:42:34.544Z,24.90
2023-03-22T13:46:34.709Z,24.92
2023-03-22T13:50:34.785Z,24.98
2023-03-22T13:54:34.931Z,25.08
2023-03-22T13:58:34.991Z,25.10
2023-03-22T14:02:37.411Z,25.10
2023-03-22T14:06:35.552Z,25.21
2023-03-22T14:10:35.495Z,25.22
2023-03-22T14:14:35.618Z,25.24
2023-03-22T14:18:35.681Z,25.20
2023-03-22T14:47:36.356Z,25.27
2023-03-22T14:51:36.073Z,25.20
2023-03-22T14:55:36.056Z,25.14
2023-03-22T14:59:35.983Z,25.17
2023-03-22T15:03:37.255Z,25.14
2023-03-22T15:07:35.922Z,25.16
2023-03-22T15:11:35.891Z,25.11
2023-03-22T15:15:35.870Z,25.15
2023-03-22T15:19:35.851Z,25.15
2023-03-22T15:23:35.836Z,25.35
2023-03-22T15:27:35.749Z,25.29
2023-03-22T15:31:35.706Z,25.12
2023-03-22T15:35:36.424Z,25.19
2023-03-22T15:39:35.736Z,25.02
2023-03-22T15:43:35.856Z,24.89
2023-03-22T15:47:36.397Z,24.80
2023-03-22T15:51:36.425Z,24.82
2023-03-22T15:55:36.148Z,24.77
2023-03-22T15:59:36.273Z,24.76
2023-03-22T16:03:36.361Z,24.73
2023-03-22T16:07:36.488Z,24.71
2023-03-22T16:11:36.506Z,24.62
2023-03-22T16:15:36.637Z,24.74
2023-03-22T16:19:36.715Z,24.74
2023-03-22T16:23:36.796Z,24.51
2023-03-22T16:27:37.060Z,24.55
2023-03-22T16:31:38.993Z,24.43
2023-03-22T16:35:39.192Z,24.36
2023-03-22T16:39:37.031Z,24.11
2023-03-22T16:43:37.415Z,24.29
2023-03-22T16:47:37.062Z,24.26
2023-03-22T16:51:37.146Z,24.60
2023-03-22T16:55:37.238Z,24.32
2023-03-22T16:59:37.214Z,24.49
2023-03-22T17:03:37.305Z,24.61
2023-03-22T17:07:37.426Z,24.67
2023-03-22T17:11:37.494Z,24.79
2023-03-22T17:15:37.731Z,24.84
2023-03-22T17:19:37.764Z,24.93
2023-03-22T17:23:37.892Z,24.93
2023-03-22T17:27:38.420Z,25.05
2023-03-22T17:31:38.332Z,25.02
2023-03-22T17:35:38.223Z,25.08
2023-03-22T17:43:39.356Z,25.21
2023-03-22T17:47:41.916Z,25.25
2023-03-22T17:51:39.283Z,25.30
2023-03-22T17:56:08.627Z,25.39
2023-03-22T17:59:39.258Z,25.43
2023-03-22T18:03:38.169Z,25.43
2023-03-22T18:07:38.935Z,25.49
2023-03-22T18:11:38.117Z,25.61
2023-03-22T18:15:38.204Z,25.67
2023-03-22T18:19:38.277Z,25.73
2023-03-22T18:23:38.405Z,25.73
2023-03-22T18:27:47.397Z,25.81
2023-03-22T18:31:39.478Z,25.78
2023-03-22T18:35:38.429Z,25.86
2023-03-22T18:40:20.050Z,25.92
2023-03-22T18:43:39.365Z,25.90
2023-03-22T18:47:38.299Z,26.06
2023-03-22T18:55:42.604Z,26.65
2023-03-22T18:59:38.419Z,28.78
2023-03-22T19:03:38.545Z,30.79
2023-03-22T19:07:55.132Z,32.08
2023-03-22T19:11:39.625Z,31.92
2023-03-22T19:15:44.377Z,31.20
2023-03-22T19:19:39.570Z,30.69
2023-03-22T19:23:38.515Z,30.45
2023-03-22T19:27:38.581Z,30.02
2023-03-22T19:31:38.613Z,29.73
2023-03-22T19:35:38.849Z,29.50
2023-03-22T19:39:38.921Z,29.34
2023-03-22T19:43:39.076Z,29.25
2023-03-22T19:51:39.150Z,29.24
2023-03-22T19:55:39.228Z,29.30
2023-03-22T19:59:39.133Z,29.22
2023-03-22T20:03:39.052Z,29.14
2023-03-22T20:07:39.013Z,29.09
2023-03-22T20:11:43.630Z,28.96
2023-03-22T20:15:39.836Z,28.93
2023-03-22T20:19:38.944Z,28.87
2023-03-22T20:23:38.864Z,28.79
2023-03-22T20:27:38.824Z,28.72
2023-03-22T20:31:39.002Z,28.72
2023-03-22T20:35:39.315Z,28.62
2023-03-22T20:39:39.471Z,28.58
2023-03-22T20:43:39.518Z,28.50
2023-03-22T20:47:39.689Z,28.49
2023-03-22T20:51:39.819Z,28.40
2023-03-22T20:55:40.148Z,28.40
2023-03-22T20:59:40.143Z,28.32
2023-03-22T21:03:40.277Z,28.32
2023-03-22T21:07:40.496Z,28.25
2023-03-22T21:11:40.718Z,28.25
2023-03-22T21:15:41.077Z,28.22
2023-03-22T21:19:41.050Z,28.19
2023-03-22T21:23:41.221Z,28.15
2023-03-22T21:27:41.379Z,28.08
2023-03-22T21:31:41.543Z,28.08
2023-03-22T21:35:41.875Z,28.07
2023-03-22T21:39:41.878Z,28.02
2023-03-22T21:43:41.998Z,28.02
2023-03-22T21:47:42.132Z,27.99
2023-03-22T21:51:42.355Z,28.05
2023-03-22T21:55:43.726Z,28.02
2023-03-22T21:59:42.616Z,28.02
2023-03-22T22:03:42.809Z,27.97
2023-03-22T22:07:42.939Z,27.96
2023-03-22T22:11:43.080Z,27.96
2023-03-22T22:15:43.298Z,27.96
2023-03-22T22:19:43.336Z,27.91
2023-03-22T22:23:43.485Z,27.95
2023-03-22T22:27:43.622Z,27.95
2023-03-22T22:31:43.698Z,27.94
2023-03-22T22:35:44.085Z,27.91
2023-03-22T22:39:43.902Z,27.91
2023-03-22T22:43:44.064Z,27.85
2023-03-22T22:47:44.068Z,27.85
2023-03-22T22:51:44.176Z,27.86
2023-03-22T22:55:44.233Z,27.80
2023-03-22T22:59:44.378Z,27.77
2023-03-22T23:03:44.561Z,27.83
2023-03-22T23:07:44.605Z,27.81
2023-03-22T23:11:44.682Z,27.75
2023-03-22T23:15:44.815Z,27.76
2023-03-22T23:19:44.888Z,27.75
2023-03-22T23:23:44.953Z,27.71
2023-03-22T23:27:45.892Z,27.72
2023-03-22T23:31:44.886Z,27.71
2023-03-22T23:35:44.878Z,27.71
2023-03-22T23:39:44.771Z,27.69
2023-03-22T23:43:44.854Z,27.68
2023-03-22T23:47:44.889Z,27.68
2023-03-22T23:51:45.013Z,27.66
2023-03-22T23:55:45.078Z,27.66
2023-03-22T23:59:45.183Z,27.66
